createdAt,value
2017-07-08T00:00:53.636Z,8.00
2017-07-08T00:03:21.653Z,7.67
2017-07-08T00:05:50.675Z,7.73
2017-07-08T00:08:18.715Z,8.07
2017-07-08T00:10:49.691Z,8.90
2017-07-08T00:13:21.232Z,8.07
2017-07-08T00:15:50.255Z,8.70
2017-07-08T00:18:18.291Z,8.40
2017-07-08T00:20:46.339Z,8.20
2017-07-08T00:25:46.735Z,8.30
2017-07-08T00:28:16.652Z,8.53
2017-07-08T00:30:50.495Z,8.47
2017-07-08T00:33:18.515Z,8.37
2017-07-08T00:35:50.472Z,7.63
2017-07-08T00:38:20.260Z,8.77
2017-07-08T00:40:50.299Z,8.80
2017-07-08T00:43:19.220Z,9.20
2017-07-08T00:45:47.243Z,8.60
2017-07-08T00:48:18.767Z,9.43
2017-07-08T00:50:46.791Z,10.20
2017-07-08T00:53:16.715Z,9.77
2017-07-08T00:55:44.755Z,10.53
2017-07-08T00:58:13.546Z,19.90
2017-07-08T01:00:42.347Z,10.30
2017-07-08T01:03:10.536Z,9.43
2017-07-08T01:05:44.631Z,7.33
2017-07-08T01:08:13.587Z,13.23
2017-07-08T01:10:41.615Z,9.03
2017-07-08T01:13:09.631Z,8.73
2017-07-08T01:15:37.672Z,11.17
2017-07-08T01:18:05.715Z,11.40
2017-07-08T01:20:33.734Z,9.40
2017-07-08T01:23:03.765Z,8.90
2017-07-08T01:25:35.118Z,8.73
2017-07-08T01:28:06.679Z,10.27
2017-07-08T01:30:40.379Z,10.30
2017-07-08T01:33:09.334Z,9.17
2017-07-08T01:35:38.254Z,11.93
2017-07-08T01:38:08.171Z,11.70
2017-07-08T01:40:36.218Z,9.17
2017-07-08T01:43:07.506Z,11.47
2017-07-08T01:45:36.306Z,9.83
2017-07-08T01:48:09.875Z,9.50
2017-07-08T01:50:38.082Z,9.53
2017-07-08T01:53:06.098Z,9.13
2017-07-08T01:55:36.119Z,8.97
2017-07-08T01:58:04.306Z,12.40
2017-07-08T02:00:33.294Z,9.73
2017-07-08T02:03:01.306Z,8.77
2017-07-08T02:05:30.425Z,11.73
2017-07-08T02:07:58.466Z,10.43
2017-07-08T02:10:26.496Z,10.07
2017-07-08T02:12:54.522Z,9.80
2017-07-08T02:15:22.561Z,10.73
2017-07-08T02:17:52.570Z,10.83
2017-07-08T02:20:20.598Z,8.53
2017-07-08T02:22:49.519Z,10.00
2017-07-08T02:25:17.526Z,9.27
2017-07-08T02:27:46.494Z,10.73
2017-07-08T02:30:15.286Z,11.93
2017-07-08T02:32:47.661Z,11.80
2017-07-08T02:35:16.458Z,9.27
2017-07-08T02:37:44.490Z,9.60
2017-07-08T02:40:13.659Z,9.57
2017-07-08T02:42:41.682Z,11.20
2017-07-08T02:45:09.715Z,10.60
2017-07-08T02:47:37.734Z,9.67
2017-07-08T02:50:05.779Z,11.23
2017-07-08T02:52:34.702Z,10.70
2017-07-08T02:55:04.735Z,12.07
2017-07-08T02:57:32.755Z,10.97
2017-07-08T03:00:00.774Z,9.53
2017-07-08T03:02:28.957Z,8.93
2017-07-08T03:04:56.978Z,21.27
2017-07-08T03:07:25.022Z,10.17
2017-07-08T03:09:53.279Z,10.70
2017-07-08T03:12:21.294Z,10.13
2017-07-08T03:14:52.018Z,10.27
2017-07-08T03:17:20.055Z,12.83
2017-07-08T03:19:48.086Z,10.30
2017-07-08T03:22:16.107Z,9.97
2017-07-08T03:24:44.238Z,12.47
2017-07-08T03:27:13.182Z,12.30
2017-07-08T03:29:41.206Z,12.53
2017-07-08T03:32:09.242Z,12.30
2017-07-08T03:34:37.302Z,11.60
2017-07-08T03:37:05.326Z,12.00
2017-07-08T03:39:33.545Z,14.00
2017-07-08T03:42:01.573Z,12.47
2017-07-08T03:44:29.610Z,12.80
2017-07-08T03:46:57.906Z,11.33
2017-07-08T03:49:25.933Z,11.67
2017-07-08T03:51:54.729Z,10.27
2017-07-08T03:54:23.861Z,11.93
2017-07-08T03:56:51.903Z,11.77
2017-07-08T03:59:19.953Z,11.47
2017-07-08T04:01:48.203Z,10.63
2017-07-08T04:04:16.226Z,10.20
2017-07-08T04:06:44.261Z,11.33
2017-07-08T04:09:12.351Z,10.30
2017-07-08T04:11:42.354Z,10.03
2017-07-08T04:14:10.376Z,10.10
2017-07-08T04:16:38.569Z,10.60
2017-07-08T04:19:06.598Z,11.27
2017-07-08T04:21:34.629Z,10.43
2017-07-08T04:24:02.953Z,10.63
2017-07-08T04:26:30.989Z,11.80
2017-07-08T04:28:59.009Z,11.53
2017-07-08T04:31:27.040Z,11.13
2017-07-08T04:33:56.968Z,12.90
2017-07-08T04:36:25.881Z,20.57
2017-07-08T04:38:53.921Z,12.30
2017-07-08T04:41:21.945Z,11.50
2017-07-08T04:43:49.964Z,14.47
2017-07-08T04:46:18.010Z,11.87
2017-07-08T04:48:46.049Z,15.20
2017-07-08T04:51:15.050Z,15.70
2017-07-08T04:53:43.089Z,12.83
2017-07-08T04:56:11.118Z,12.33
2017-07-08T04:58:39.917Z,14.40
2017-07-08T05:01:08.712Z,13.60
2017-07-08T05:03:36.732Z,14.20
2017-07-08T05:06:04.769Z,12.37
2017-07-08T05:08:32.791Z,13.97
2017-07-08T05:11:01.588Z,15.63
2017-07-08T05:13:29.618Z,15.37
2017-07-08T05:15:57.859Z,14.73
2017-07-08T05:18:25.876Z,13.77
2017-07-08T05:20:53.904Z,14.47
2017-07-08T05:23:21.943Z,15.23
2017-07-08T05:25:50.739Z,14.57
2017-07-08T05:28:18.779Z,12.60
2017-07-08T05:30:46.927Z,14.97
2017-07-08T05:33:14.955Z,13.63
2017-07-08T05:35:42.971Z,14.37
2017-07-08T05:38:11.159Z,13.30
2017-07-08T05:40:39.178Z,13.17
2017-07-08T05:43:08.083Z,13.03
2017-07-08T05:45:36.114Z,12.87
2017-07-08T05:48:04.142Z,14.00
2017-07-08T05:50:32.162Z,15.17
2017-07-08T05:53:01.939Z,13.00
2017-07-08T05:55:29.914Z,29.93
2017-07-08T05:57:57.943Z,15.47
2017-07-08T06:00:26.311Z,12.60
2017-07-08T06:02:54.334Z,12.20
2017-07-08T06:05:22.346Z,14.43
2017-07-08T06:07:50.626Z,12.60
2017-07-08T06:10:18.654Z,11.23
2017-07-08T06:12:46.670Z,10.23
2017-07-08T06:15:14.693Z,11.53
2017-07-08T06:17:42.702Z,10.57
2017-07-08T06:20:10.713Z,12.73
2017-07-08T06:22:38.742Z,10.47
2017-07-08T06:25:08.650Z,11.30
2017-07-08T06:27:36.670Z,12.10
2017-07-08T06:30:04.699Z,8.57
2017-07-08T06:32:32.706Z,7.90
2017-07-08T06:35:00.710Z,8.07
2017-07-08T06:37:29.499Z,11.73
2017-07-08T06:39:58.282Z,8.93
2017-07-08T06:42:27.078Z,11.43
2017-07-08T06:44:55.098Z,11.33
2017-07-08T06:47:23.115Z,10.10
2017-07-08T06:49:51.233Z,8.17
2017-07-08T06:52:19.257Z,14.13
2017-07-08T06:54:47.275Z,9.17
2017-07-08T06:57:15.290Z,7.17
2017-07-08T06:59:44.097Z,6.77
2017-07-08T07:02:12.118Z,6.47
2017-07-08T07:04:40.135Z,11.00
2017-07-08T07:07:08.169Z,9.07
2017-07-08T07:09:36.211Z,6.70
2017-07-08T07:12:04.257Z,6.23
2017-07-08T07:14:33.809Z,7.27
2017-07-08T07:17:01.821Z,8.23
2017-07-08T07:19:29.842Z,6.73
2017-07-08T07:21:58.031Z,5.93
2017-07-08T07:24:26.037Z,9.00
2017-07-08T07:26:54.054Z,5.40
2017-07-08T07:29:22.069Z,7.03
2017-07-08T07:31:50.086Z,8.53
2017-07-08T07:34:18.577Z,5.27
2017-07-08T07:36:46.809Z,10.37
2017-07-08T07:39:14.829Z,6.23
2017-07-08T07:41:42.837Z,5.47
2017-07-08T07:44:10.867Z,5.00
2017-07-08T07:46:38.885Z,5.93
2017-07-08T07:49:06.897Z,9.07
2017-07-08T07:51:34.924Z,5.70
2017-07-08T07:54:02.953Z,4.50
2017-07-08T07:56:31.232Z,6.87
2017-07-08T07:58:59.252Z,4.47
2017-07-08T08:01:27.264Z,4.13
2017-07-08T08:03:55.281Z,7.27
2017-07-08T08:06:23.496Z,4.47
2017-07-08T08:08:51.505Z,4.73
2017-07-08T08:11:20.287Z,3.77
2017-07-08T08:13:49.312Z,6.53
2017-07-08T08:16:17.326Z,4.30
2017-07-08T08:18:45.344Z,4.20
2017-07-08T08:21:13.363Z,4.80
2017-07-08T08:23:41.375Z,3.87
2017-07-08T08:26:09.407Z,3.90
2017-07-08T08:28:37.427Z,6.30
2017-07-08T08:31:05.440Z,3.17
2017-07-08T08:33:33.451Z,4.50
2017-07-08T08:36:01.607Z,7.20
2017-07-08T08:38:29.769Z,10.23
2017-07-08T08:40:57.931Z,6.50
2017-07-08T08:43:25.956Z,4.60
2017-07-08T08:45:53.963Z,2.60
2017-07-08T08:48:21.972Z,3.00
2017-07-08T08:50:50.751Z,3.43
2017-07-08T08:53:19.531Z,2.27
2017-07-08T08:55:47.548Z,4.93
2017-07-08T08:58:15.563Z,3.80
2017-07-08T09:00:43.584Z,5.43
2017-07-08T09:03:11.588Z,2.60
2017-07-08T09:05:39.606Z,2.63
2017-07-08T09:08:07.618Z,7.07
2017-07-08T09:10:35.624Z,2.73
2017-07-08T09:13:04.407Z,4.60
2017-07-08T09:15:33.182Z,4.43
2017-07-08T09:18:01.191Z,2.70
2017-07-08T09:20:29.371Z,4.20
2017-07-08T09:22:57.378Z,2.70
2017-07-08T09:25:25.382Z,2.27
2017-07-08T09:27:54.171Z,2.40
2017-07-08T09:30:22.943Z,3.37
2017-07-08T09:32:50.947Z,9.07
2017-07-08T09:35:19.131Z,2.47
2017-07-08T09:37:47.139Z,2.67
2017-07-08T09:40:15.148Z,2.53
2017-07-08T09:42:43.179Z,6.77
2017-07-08T09:45:11.190Z,2.90
2017-07-08T09:47:39.203Z,5.13
2017-07-08T09:50:07.228Z,4.20
2017-07-08T09:52:35.243Z,3.20
2017-07-08T09:55:03.282Z,2.80
2017-07-08T09:57:31.295Z,2.67
2017-07-08T09:59:59.308Z,3.80
2017-07-08T10:02:27.326Z,2.67
2017-07-08T10:04:55.864Z,3.30
2017-07-08T10:07:23.831Z,4.80
2017-07-08T10:09:51.839Z,6.10
2017-07-08T10:12:19.854Z,3.73
2017-07-08T10:14:48.628Z,3.63
2017-07-08T10:17:16.648Z,3.80
2017-07-08T10:19:44.659Z,2.60
2017-07-08T10:22:12.670Z,3.63
2017-07-08T10:24:40.675Z,2.97
2017-07-08T10:27:08.706Z,2.90
2017-07-08T10:29:36.728Z,6.33
2017-07-08T10:32:04.755Z,2.73
2017-07-08T10:34:33.044Z,2.73
2017-07-08T10:37:01.063Z,10.50
2017-07-08T10:39:29.075Z,3.30
2017-07-08T10:41:57.356Z,2.30
2017-07-08T10:44:25.359Z,2.60
2017-07-08T10:46:53.376Z,6.73
2017-07-08T10:49:21.416Z,2.20
2017-07-08T10:51:49.427Z,5.60
2017-07-08T10:54:17.443Z,3.23
2017-07-08T10:56:45.472Z,2.57
2017-07-08T10:59:13.491Z,3.23
2017-07-08T11:01:41.496Z,3.70
2017-07-08T11:04:09.779Z,4.40
2017-07-08T11:06:37.799Z,2.43
2017-07-08T11:09:05.820Z,5.83
2017-07-08T11:11:34.003Z,3.07
2017-07-08T11:14:02.024Z,3.70
2017-07-08T11:16:30.048Z,4.27
2017-07-08T11:18:58.296Z,2.53
2017-07-08T11:21:26.527Z,5.50
2017-07-08T11:24:03.840Z,4.20
2017-07-08T11:26:32.604Z,2.70
2017-07-08T11:29:00.636Z,2.60
2017-07-08T11:31:28.912Z,3.03
2017-07-08T11:33:56.932Z,3.30
2017-07-08T11:36:24.948Z,3.63
2017-07-08T11:38:52.972Z,4.37
2017-07-08T11:41:21.776Z,2.80
2017-07-08T11:43:50.560Z,3.53
2017-07-08T11:46:18.759Z,4.57
2017-07-08T11:48:46.768Z,4.40
2017-07-08T11:51:14.784Z,6.00
2017-07-08T11:53:43.580Z,3.23
2017-07-08T11:56:11.593Z,3.67
2017-07-08T11:58:39.600Z,3.43
2017-07-08T12:01:08.624Z,2.67
2017-07-08T12:03:36.640Z,2.70
2017-07-08T12:06:04.664Z,2.93
2017-07-08T12:08:32.692Z,3.63
2017-07-08T12:11:00.708Z,3.50
2017-07-08T12:13:28.716Z,11.23
2017-07-08T12:15:56.752Z,4.37
2017-07-08T12:18:24.805Z,3.07
2017-07-08T12:20:52.808Z,3.80
2017-07-08T12:23:21.064Z,9.40
2017-07-08T12:25:49.133Z,4.13
2017-07-08T12:28:17.149Z,6.13
2017-07-08T12:30:45.349Z,6.53
2017-07-08T12:33:14.157Z,2.70
2017-07-08T12:35:42.173Z,4.70
2017-07-08T12:38:10.533Z,3.40
2017-07-08T12:40:38.609Z,2.63
2017-07-08T12:43:06.642Z,4.07
2017-07-08T12:45:34.661Z,2.47
2017-07-08T12:48:03.560Z,6.37
2017-07-08T12:50:31.588Z,10.53
2017-07-08T12:52:59.629Z,3.23
2017-07-08T12:55:28.401Z,2.97
2017-07-08T12:57:56.421Z,3.47
2017-07-08T13:00:24.601Z,4.80
2017-07-08T13:02:52.613Z,3.60
2017-07-08T13:05:21.388Z,3.03
2017-07-08T13:07:49.601Z,3.17
2017-07-08T13:10:17.618Z,3.57
2017-07-08T13:12:45.617Z,3.07
2017-07-08T13:15:13.633Z,3.97
2017-07-08T13:17:41.640Z,3.33
2017-07-08T13:20:09.653Z,5.30
2017-07-08T13:22:37.773Z,5.17
2017-07-08T13:25:05.784Z,5.30
2017-07-08T13:27:33.793Z,4.10
2017-07-08T13:30:01.812Z,3.87
2017-07-08T13:32:29.824Z,4.07
2017-07-08T13:34:57.838Z,3.47
2017-07-08T13:37:25.855Z,9.80
2017-07-08T13:39:53.868Z,5.07
2017-07-08T13:42:21.879Z,3.70
2017-07-08T13:44:50.164Z,8.43
2017-07-08T13:47:18.168Z,2.47
2017-07-08T13:49:46.184Z,5.50
2017-07-08T13:52:14.376Z,3.47
2017-07-08T13:54:42.389Z,3.43
2017-07-08T13:57:10.400Z,4.30
2017-07-08T13:59:38.688Z,2.80
2017-07-08T14:02:06.700Z,6.47
2017-07-08T14:04:34.712Z,4.57
2017-07-08T14:07:02.895Z,3.90
2017-07-08T14:09:30.912Z,5.87
2017-07-08T14:11:58.924Z,2.40
2017-07-08T14:14:26.951Z,4.80
2017-07-08T14:16:54.964Z,4.60
2017-07-08T14:19:22.987Z,3.10
2017-07-08T14:21:51.220Z,3.43
2017-07-08T14:24:19.255Z,4.63
2017-07-08T14:26:47.251Z,3.10
2017-07-08T14:29:15.439Z,3.40
2017-07-08T14:31:43.444Z,3.43
2017-07-08T14:34:11.451Z,3.83
2017-07-08T14:36:39.467Z,2.63
2017-07-08T14:39:07.479Z,6.47
2017-07-08T14:41:36.251Z,5.67
2017-07-08T14:44:04.480Z,6.77
2017-07-08T14:46:32.474Z,4.80
2017-07-08T14:49:00.478Z,2.90
2017-07-08T14:51:29.271Z,4.87
2017-07-08T14:53:58.046Z,6.80
2017-07-08T14:56:26.823Z,7.30
2017-07-08T14:58:54.838Z,3.07
2017-07-08T15:01:22.847Z,3.40
2017-07-08T15:03:50.858Z,3.30
2017-07-08T15:06:19.457Z,3.40
2017-07-08T15:08:47.467Z,3.87
2017-07-08T15:11:15.481Z,2.80
2017-07-08T15:13:43.490Z,3.93
2017-07-08T15:16:11.503Z,2.60
2017-07-08T15:18:39.510Z,3.73
2017-07-08T15:21:07.526Z,2.70
2017-07-08T15:23:35.546Z,4.47
2017-07-08T15:26:03.550Z,3.50
2017-07-08T15:28:31.562Z,4.37
2017-07-08T15:30:59.566Z,2.60
2017-07-08T15:33:27.574Z,2.77
2017-07-08T15:35:55.601Z,9.33
2017-07-08T15:38:23.606Z,3.60
2017-07-08T15:40:51.609Z,3.80
2017-07-08T15:43:19.809Z,12.73
2017-07-08T15:45:47.822Z,3.27
2017-07-08T15:48:15.834Z,3.53
2017-07-08T15:50:43.854Z,4.17
2017-07-08T15:53:11.861Z,3.07
2017-07-08T15:55:39.886Z,3.70
2017-07-08T15:58:08.945Z,2.13
2017-07-08T16:00:36.985Z,2.90
2017-07-08T16:03:05.013Z,2.70
2017-07-08T16:05:33.065Z,2.23
2017-07-08T16:08:01.061Z,2.53
2017-07-08T16:10:29.068Z,5.10
2017-07-08T16:12:57.082Z,6.37
2017-07-08T16:15:25.088Z,4.43
2017-07-08T16:17:53.100Z,2.87
2017-07-08T16:20:21.297Z,4.33
2017-07-08T16:22:49.308Z,3.83
2017-07-08T16:25:17.329Z,3.03
2017-07-08T16:27:45.337Z,3.33
2017-07-08T16:30:13.353Z,3.20
2017-07-08T16:32:41.368Z,11.20
2017-07-08T16:35:09.605Z,2.90
2017-07-08T16:37:37.618Z,6.10
2017-07-08T16:40:05.637Z,3.60
2017-07-08T16:42:33.664Z,5.30
2017-07-08T16:45:01.672Z,8.20
2017-07-08T16:47:29.684Z,2.43
2017-07-08T16:49:57.932Z,2.80
2017-07-08T16:52:25.944Z,4.60
2017-07-08T16:54:53.964Z,2.90
2017-07-08T16:57:22.152Z,4.13
2017-07-08T16:59:50.163Z,3.90
2017-07-08T17:02:18.171Z,6.00
2017-07-08T17:04:46.461Z,5.60
2017-07-08T17:07:14.472Z,12.73
2017-07-08T17:09:42.484Z,12.17
2017-07-08T17:12:10.524Z,6.47
2017-07-08T17:14:38.540Z,6.83
2017-07-08T17:17:06.552Z,5.50
2017-07-08T17:19:34.780Z,3.87
2017-07-08T17:22:02.792Z,2.60
2017-07-08T17:24:30.809Z,2.50
2017-07-08T17:26:58.997Z,5.13
2017-07-08T17:29:27.005Z,2.93
2017-07-08T17:31:55.017Z,7.13
2017-07-08T17:34:23.304Z,6.10
2017-07-08T17:36:51.309Z,2.50
2017-07-08T17:39:19.326Z,3.30
2017-07-08T17:41:47.521Z,2.83
2017-07-08T17:44:15.529Z,6.60
2017-07-08T17:46:43.549Z,4.43
2017-07-08T17:49:11.798Z,4.40
2017-07-08T17:51:39.797Z,2.20
2017-07-08T17:54:07.809Z,3.10
2017-07-08T17:56:36.053Z,3.30
2017-07-08T17:59:04.052Z,2.87
2017-07-08T18:01:32.066Z,3.73
2017-07-08T18:04:00.252Z,3.53
2017-07-08T18:06:28.273Z,9.07
2017-07-08T18:08:56.293Z,19.23
2017-07-08T18:11:24.577Z,4.00
2017-07-08T18:13:52.586Z,5.67
2017-07-08T18:16:20.605Z,3.30
2017-07-08T18:18:48.633Z,17.10
2017-07-08T18:21:16.657Z,10.17
2017-07-08T18:23:44.680Z,4.27
2017-07-08T18:26:12.869Z,3.33
2017-07-08T18:28:40.893Z,3.07
2017-07-08T18:31:08.905Z,4.13
2017-07-08T18:33:37.853Z,4.70
2017-07-08T18:36:05.866Z,3.93
2017-07-08T18:38:34.638Z,2.90
2017-07-08T18:41:02.825Z,4.07
2017-07-08T18:43:31.606Z,4.80
2017-07-08T18:45:59.625Z,9.93
2017-07-08T18:48:27.912Z,3.90
2017-07-08T18:50:55.904Z,3.10
2017-07-08T18:53:23.923Z,4.00
2017-07-08T18:55:51.965Z,4.40
2017-07-08T18:58:19.976Z,8.20
2017-07-08T19:00:48.192Z,14.97
2017-07-08T19:03:16.421Z,5.13
2017-07-08T19:05:44.441Z,17.73
2017-07-08T19:08:12.452Z,3.20
2017-07-08T19:10:40.689Z,4.57
2017-07-08T19:13:08.704Z,5.70
2017-07-08T19:15:36.713Z,5.50
2017-07-08T19:18:04.948Z,4.23
2017-07-08T19:20:32.967Z,5.20
2017-07-08T19:23:00.991Z,5.10
2017-07-08T19:25:29.284Z,5.27
2017-07-08T19:27:57.300Z,2.80
2017-07-08T19:30:26.087Z,6.03
2017-07-08T19:32:54.323Z,4.80
2017-07-08T19:35:22.296Z,5.80
2017-07-08T19:37:50.323Z,4.50
2017-07-08T19:40:18.491Z,23.10
2017-07-08T19:42:47.160Z,6.77
2017-07-08T19:45:15.163Z,5.93
2017-07-08T19:47:44.567Z,4.23
2017-07-08T19:50:13.508Z,6.40
2017-07-08T19:52:47.516Z,11.97
2017-07-08T19:55:23.243Z,12.43
2017-07-08T19:57:51.444Z,3.87
2017-07-08T20:00:22.887Z,4.73
2017-07-08T20:02:52.851Z,13.20
2017-07-08T20:05:21.804Z,25.93
2017-07-08T20:07:53.256Z,12.13
2017-07-08T20:10:21.276Z,18.33
2017-07-08T20:12:50.179Z,8.00
2017-07-08T20:15:19.216Z,9.27
2017-07-08T20:17:48.004Z,8.10
2017-07-08T20:20:16.792Z,20.63
2017-07-08T20:22:52.115Z,7.30
2017-07-08T20:25:20.135Z,10.73
2017-07-08T20:27:51.679Z,7.73
2017-07-08T20:30:21.652Z,8.60
2017-07-08T20:32:49.663Z,5.70
2017-07-08T20:35:20.786Z,6.63
2017-07-08T20:37:51.487Z,10.53
2017-07-08T20:40:37.806Z,6.83
2017-07-08T20:43:05.826Z,7.90
2017-07-08T20:45:33.850Z,7.80
2017-07-08T20:48:04.547Z,11.47
2017-07-08T20:50:34.194Z,8.37
2017-07-08T20:53:02.174Z,9.13
2017-07-08T20:55:31.042Z,8.77
2017-07-08T20:58:00.296Z,6.70
2017-07-08T21:00:34.415Z,7.37
2017-07-08T21:03:06.162Z,5.90
2017-07-08T21:05:41.539Z,16.03
2017-07-08T21:08:11.574Z,5.73
2017-07-08T21:10:41.727Z,5.23
2017-07-08T21:13:17.042Z,9.30
2017-07-08T21:15:59.276Z,5.93
2017-07-08T21:18:28.222Z,9.80
2017-07-08T21:20:59.349Z,6.20
2017-07-08T21:23:27.381Z,5.60
2017-07-08T21:26:03.393Z,5.50
2017-07-08T21:28:43.785Z,8.20
2017-07-08T21:34:11.037Z,5.20
2017-07-08T21:39:36.361Z,6.87
2017-07-08T21:42:05.277Z,5.97
2017-07-08T21:47:34.229Z,5.10
2017-07-08T21:50:02.253Z,10.80
2017-07-08T21:52:36.854Z,5.47
2017-07-08T21:55:10.593Z,10.10
2017-07-08T21:57:47.105Z,8.90
2017-07-08T22:00:17.125Z,8.97
2017-07-08T22:02:50.842Z,7.50
2017-07-08T22:05:25.322Z,5.87
2017-07-08T22:08:00.321Z,9.33
2017-07-08T22:10:31.966Z,5.27
2017-07-08T22:13:00.929Z,8.37
2017-07-08T22:15:29.925Z,7.67
2017-07-08T22:17:59.953Z,11.20
2017-07-08T22:20:28.929Z,6.63
2017-07-08T22:22:57.849Z,9.27
2017-07-08T22:25:26.813Z,7.87
2017-07-08T22:27:55.813Z,8.90
2017-07-08T22:33:24.721Z,9.73
2017-07-08T22:36:04.229Z,13.73
2017-07-08T22:38:32.257Z,7.60
2017-07-08T22:41:04.758Z,10.33
2017-07-08T22:43:34.681Z,8.37
2017-07-08T22:49:02.084Z,8.43
2017-07-08T22:54:28.441Z,6.70
2017-07-08T22:57:02.237Z,8.97
2017-07-08T22:59:36.425Z,9.53
2017-07-08T23:02:10.373Z,6.77
2017-07-08T23:04:38.401Z,8.80
2017-07-08T23:07:07.416Z,6.77
2017-07-08T23:09:37.634Z,6.40
2017-07-08T23:12:06.539Z,6.73
2017-07-08T23:14:39.352Z,7.47
2017-07-08T23:17:15.997Z,6.63
2017-07-08T23:19:46.828Z,12.30
2017-07-08T23:22:22.248Z,13.07
2017-07-08T23:24:52.209Z,8.47
2017-07-08T23:27:28.533Z,7.27
2017-07-08T23:30:06.340Z,7.83
2017-07-08T23:32:39.352Z,7.73
2017-07-08T23:35:13.112Z,9.73
2017-07-08T23:37:51.424Z,7.03
2017-07-08T23:43:26.584Z,6.80
2017-07-08T23:45:58.693Z,9.67
2017-07-08T23:48:29.421Z,7.37
2017-07-08T23:54:00.956Z,11.10
2017-07-08T23:56:46.561Z,11.10
2017-07-08T23:59:22.177Z,9.93
